WEATHER DATA

YESTERDAY
Time Temp. Dewp. Hum. Wind dir Wind speed Wind gust Bar.
00:01 -0.9 -2.8 85 226 0.8 1.7 1029.9
00:11 -1.1 -3.2 84 231 0.8 1.7 1030
00:21 -1.2 -3.3 84 233 0.6 1.1 1029.9
00:31 -1.2 -3.1 85 226 0.8 1.9 1029.8
00:41 -1.3 -3.2 85 234 1.7 2.5 1029.7
00:51 -1.3 -3.2 85 239 1.1 1.7 1029.8
01:01 -1.2 -3.1 85 228 0.8 1.7 1029.8
01:11 -1.1 -3 85 231 1.1 1.9 1029.6
01:22 -1.1 -3 85 231 0.8 1.7 1029.6
01:32 -1.1 -3 85 301 0.6 1.1 1029.7
01:41 -1.1 -3 85 233 0.6 0.8 1029.6
01:51 -1.1 -3 85 220 0.6 0.8 1029.6
02:02 -1 -2.9 85 232 0.6 1.7 1029.3
02:12 -0.8 -2.7 85 239 1.1 1.7 1029.2
02:21 -0.7 -2.6 85 237 0.8 1.4 1029
02:32 -0.6 -2.6 85 223 0.8 1.4 1029.3
02:42 -0.7 -2.6 85 270 0.6 1.1 1029.2
02:52 -0.7 -2.6 85 238 0.8 1.7 1029.3
03:02 -0.5 -2.5 85 228 0.8 1.7 1029.2
03:12 -0.5 -2.5 85 307 0.3 0.8 1029.1
03:22 -0.6 -2.6 85 315 0.6 1.1 1029.1
03:32 -0.7 -2.6 85 270 0.3 0.8 1029.1
03:43 -0.7 -2.5 86 304 0.3 0.8 1029.2
03:52 -0.6 -2.4 86 240 0.6 1.1 1029.1
04:02 -0.5 -2.3 86 216 0.8 1.4 1029.3
04:12 -0.5 -2.3 86 229 0.8 1.7 1029.1
04:23 -0.4 -2.2 86 225 0.6 1.7 1029.1
04:32 -0.3 -2.1 86 232 0.8 1.7 1029
04:42 -0.3 -2.1 86 239 0.8 1.7 1029
04:53 -0.2 -2 86 219 0.8 1.7 1029
05:03 -0.1 -1.9 86 234 1.1 1.7 1029
05:12 0.1 -1.7 86 225 0.8 1.7 1029
05:23 0.1 -1.7 86 227 0.6 1.4 1029
05:33 0.1 -1.7 86 321 0.6 1.4 1029
05:43 0.1 -1.7 86 270 0.3 0.8 1028.9
05:52 0 -1.8 86 238 0.6 1.9 1028.9
06:03 -0.1 -1.9 86 303 0.6 1.1 1028.9
06:13 -0.1 -1.9 86 270 0.3 0.8 1028.9
06:23 0 -1.8 86 239 0.6 1.1 1029
06:33 0.1 -1.7 86 270 0.3 0.8 1029.1
06:43 0.1 -1.7 86 270 0.3 1.1 1029.1
06:53 0.1 -1.7 86 270 0.3 0.8 1029
07:03 0.1 -1.7 86 270 0.3 0.8 1029
07:14 0.1 -1.7 86 270 0.3 0.6 1029
07:23 0.1 -1.7 86 237 0.3 1.1 1029
07:33 0.2 -1.6 86 270 0.3 0.6 1029.2
07:44 0.2 -1.6 86 270 0.3 0.8 1029.2
07:54 0.2 -1.6 86 270 0.3 1.1 1029.3
08:03 0.2 -1.6 86 270 0.3 0.8 1029.3
08:13 0.2 -1.6 86 227 0.6 1.1 1029.3
08:24 0.3 -1.6 86 225 0.8 1.7 1029.3
08:34 0.2 -1.6 86 220 0.6 1.1 1029.4
08:43 0.3 -1.4 87 237 0.3 0.6 1029.6
08:54 0.3 -1.4 87 270 0.3 0.8 1029.7
09:04 0.3 -1.4 87 270 0.3 0.6 1029.7
09:14 0.4 -1.3 87 270 0.3 1.1 1029.8
09:23 0.4 -1.3 87 234 0.3 0.8 1029.9
09:34 0.6 -1.2 87 270 0.3 0.6 1030
09:44 0.7 -1.1 87 228 0.6 0.8 1030
09:54 0.7 -1.1 87 270 0.3 1.1 1030.1
10:04 0.7 -1.1 87 270 0.3 0.8 1030.3
10:24 0.9 -0.9 87 233 1.1 1.9 1030.6
10:34 1 -0.8 87 216 0.6 1.1 1030.7
10:44 1.1 -0.7 87 228 0.3 0.8 1030.7
10:54 1.3 -0.5 87 232 0.3 1.1 1030.7
11:04 1.6 -0.3 87 230 0.8 1.7 1030.8
11:15 1.8 -0.3 86 229 1.1 1.7 1030.7
11:24 2 -0.1 86 229 0.6 1.1 1030.7
11:34 2.2 0.1 86 203 0.3 0.8 1030.7
11:44 2.5 0.4 86 270 0.3 0.8 1030.7
11:55 2.8 0.7 86 219 0.3 0.6 1030.8
12:05 3 0.9 86 270 0.3 1.1 1030.8
12:14 3.2 1.1 86 228 0.6 1.1 1030.7
12:25 3.5 1.4 86 235 0.3 0.8 1030.6
12:35 3.9 1.6 85 232 0.6 0.8 1030.5
12:45 4.2 1.9 85 285 0.6 1.9 1030.4
12:55 4.4 2.1 85 270 0.6 1.4 1030.4
13:05 4.6 2.3 85 253 0.6 1.1 1030.1
13:15 4.9 2.6 85 245 0.6 1.1 1030
13:25 5.2 2.7 84 236 0.8 1.9 1029.8
13:35 5.6 3.1 84 236 0.3 1.1 1029.6
13:45 5.9 3.2 83 249 0.6 1.4 1029.4
13:55 6.1 3.4 83 270 0.6 1.7 1029.3
14:05 6.2 3.4 82 270 0.3 1.1 1029.1
14:16 6.4 3.6 82 237 0.6 1.1 1029
14:25 6.6 3.8 82 229 0.3 1.4 1028.9
14:35 6.7 3.8 82 228 0.3 0.8 1028.6
14:46 6.8 3.8 81 270 0.3 0.6 1028.5
14:56 6.8 3.8 81 270 0.3 1.1 1028.4
15:05 6.8 3.8 81 220 0.3 0.8 1028.3
15:16 6.9 3.9 81 270 0.3 1.1 1028.2
15:26 7 4 81 270 0.3 0.8 1028.2
15:36 7 4 81 209 0.3 1.1 1028.3
15:46 7 4 81 242 0.6 1.4 1028.3
15:56 7 4 81 290 0.6 1.4 1028.3
16:06 7 4 81 225 0.6 1.1 1028.3
16:16 7 3.8 80 324 0.8 1.9 1028.3
16:26 7 3.8 80 286 0.6 1.7 1028.3
16:36 6.9 3.7 80 293 0.6 1.1 1028.3
16:46 6.9 3.5 79 315 0.8 2.5 1028.3
16:56 6.9 3.5 79 308 0.6 1.7 1028.4
17:07 6.9 3.5 79 270 0.8 1.9 1028.4
17:17 6.8 3.2 78 316 0.8 2.8 1028.4
17:26 6.8 3.4 79 302 0.6 2.2 1028.4
17:36 6.7 3.3 79 303 0.8 1.7 1028.5
17:47 6.7 3.3 79 311 0.8 1.7 1028.5
17:57 6.6 3.2 79 303 0.8 1.7 1028.5
18:06 6.6 3.2 79 315 0.8 2.2 1028.6
18:17 6.5 3.1 79 311 0.8 2.2 1028.5
18:27 6.5 3.1 79 292 0.8 1.7 1028.6
18:37 6.4 3 79 300 0.8 1.9 1028.6
18:47 6.3 3.1 80 293 0.8 1.4 1028.6
18:57 6.3 3.1 80 270 0.6 1.1 1028.6
19:07 6.2 3 80 235 0.6 1.1 1028.8
19:17 6.2 3 80 281 0.8 2.2 1028.8
19:27 6.2 3 80 270 0.3 0.8 1028.9
19:37 6.2 3.2 81 243 0.6 1.1 1028.9
19:47 6.1 3.1 81 210 0.3 1.1 1028.6
19:58 6.1 3.1 81 233 0.6 1.7 1028.6
20:07 6 3 81 250 0.6 1.4 1028.6
20:17 5.9 3.1 82 221 0.6 1.4 1028.6
20:27 5.9 3.1 82 270 0.6 1.4 1028.5
20:38 5.8 3 82 270 0.3 0.8 1028.5
20:47 5.8 3 82 245 0.6 1.1 1028.5
20:57 5.7 3 83 270 0.6 1.4 1028.4
21:08 5.6 2.9 83 270 0.6 1.4 1028.5
21:18 5.6 2.9 83 242 0.6 1.4 1028.6
21:28 5.6 2.9 83 270 0.6 1.4 1028.5
21:37 5.6 2.9 83 231 0.6 1.1 1028.5
21:48 5.6 2.9 83 247 0.6 1.4 1028.6
21:58 5.6 2.9 83 270 0.6 1.4 1028.6
22:08 5.5 2.8 83 270 0.6 1.4 1028.6
22:18 5.5 2.8 83 270 0.6 1.7 1028.8
22:28 5.5 2.8 83 255 0.6 1.1 1028.8
22:38 5.4 2.7 83 243 0.6 1.4 1028.9
22:48 5.4 2.7 83 236 0.6 1.4 1028.9
22:59 5.4 2.9 84 255 0.6 1.7 1028.8
23:08 5.4 2.9 84 241 0.6 1.4 1028.8
23:18 5.4 2.9 84 248 0.6 1.4 1028.9
23:29 5.4 2.9 84 252 0.6 1.9 1028.8
23:39 5.4 2.9 84 270 0.6 1.4 1028.8
23:48 5.4 2.9 84 270 0.6 1.9 1028.8
23:58 5.3 2.8 84 270 0.6 1.4 1028.8

DAY STATISTIC

2023-01-31
TEMPERATURE
AVERAGE
3.0
HIGH
7.0
15:26
LOW
-1.3
00:41
PRESSURE
AVERAGE
1029.2
HIGH
1030.8
11:04
LOW
1028.2
15:16
DEWPOINT
AVERAGE
0.6
HIGH
4.0
15:26
LOW
-3.3
00:21
HUMIDITY
AVERAGE
84
HIGH
87
08:43
LOW
78
17:17
WIND SPEED
AVERAGE
0.6
HIGH
1.7
00:41
WIND GUST
AVERAGE
1.3
HIGH
2.8
17:17
WIND DIRECTION
PREVAILING
SW
48.3%
N
0.0
NE
0.0
E
0.0
SE
0.0
S
0.7
SW
48.3
W
37.8
NW
13.3
TEMPERATURE (°C)
LOW
-1.3
HIGH
7.0
AVERAGE
3.0
PRESSURE (hpa)
LOW
1028.2
HIGH
1030.8
AVERAGE
1029.2
DEVICE